Time;durP1;ratioP1;P1;durP2;ratioP2;P2;SDS_P1;SDS_P2;PMS_P1;PMS_P2;Temp;Humidity;BMP_temperature;BMP_pressure;BME280_temperature;BME280_humidity;BME280_pressure;Samples;Min_cycle;Max_cycle;Signal;HPM_P1;HPM_P2
2024/01/26 00:02:58;;;;;;;;;;;;;;;7.63;100.00;96683.09;10436113;28;3116;-68
2024/01/26 00:08:01;;;;;;;;;;;;;;;7.70;100.00;96686.47;10437190;28;2962;-66
2024/01/26 00:13:03;;;;;;;;;;;;;;;7.59;100.00;96678.22;10433679;28;2937;-65
2024/01/26 00:18:06;;;;;;;;;;;;;;;7.71;100.00;96677.41;10436442;28;2910;-66
2024/01/26 00:23:09;;;;;;;;;;;;;;;7.76;100.00;96677.50;10437593;28;2980;-66
2024/01/26 00:28:11;;;;;;;;;;;;;;;7.72;100.00;96679.03;10446478;28;2981;-67
2024/01/26 00:33:14;;;;;;;;;;;;;;;7.75;100.00;96678.56;10434961;28;2993;-66
2024/01/26 00:38:17;;;;;;;;;;;;;;;7.84;100.00;96669.13;10439439;28;3191;-66
2024/01/26 00:43:19;;;;;;;;;;;;;;;7.81;100.00;96678.44;10441101;28;2902;-65
2024/01/26 00:48:22;;;;;;;;;;;;;;;7.77;100.00;96676.47;10440611;28;2895;-67
2024/01/26 00:53:24;;;;;;;;;;;;;;;7.74;100.00;96668.91;10442912;28;2921;-68
2024/01/26 00:58:27;;;;;;;;;;;;;;;7.78;100.00;96688.81;10436670;28;3285;-66
2024/01/26 01:03:30;;;;;;;;;;;;;;;7.71;100.00;96682.75;10438023;28;2954;-67
2024/01/26 01:08:32;;;;;;;;;;;;;;;7.70;100.00;96683.78;10441828;28;2970;-65
2024/01/26 01:13:36;;;;;;;;;;;;;;;7.54;100.00;96682.63;10442689;28;2947;-66
2024/01/26 01:18:39;;;;;;;;;;;;;;;7.56;100.00;96689.38;10433625;28;2997;-66
2024/01/26 01:23:43;;;;;;;;;;;;;;;7.44;100.00;96674.34;10435363;28;2990;-66
2024/01/26 01:28:45;;;;;;;;;;;;;;;7.37;100.00;96685.16;10441599;28;3065;-66
2024/01/26 01:33:48;;;;;;;;;;;;;;;7.35;100.00;96684.59;10440789;28;3050;-67
2024/01/26 01:38:51;;;;;;;;;;;;;;;7.34;100.00;96677.63;10434465;28;3067;-66
2024/01/26 01:43:53;;;;;;;;;;;;;;;7.36;100.00;96675.50;10434618;28;2989;-67
2024/01/26 01:48:55;;;;;;;;;;;;;;;7.32;100.00;96685.06;10440914;28;3577;-67
2024/01/26 01:53:58;;;;;;;;;;;;;;;7.39;100.00;96693.78;10442197;28;2850;-66
2024/01/26 01:59:01;;;;;;;;;;;;;;;7.41;100.00;96689.03;10435866;28;2925;-68
2024/01/26 02:04:04;;;;;;;;;;;;;;;7.42;100.00;96689.84;10445891;28;2934;-65
2024/01/26 02:09:10;;;;;;;;;;;;;;;7.44;100.00;96687.72;10445886;28;2982;-67
2024/01/26 02:14:13;;;;;;;;;;;;;;;7.40;100.00;96683.91;10446603;28;3187;-66
2024/01/26 02:19:16;;;;;;;;;;;;;;;7.44;100.00;96671.69;10445787;28;2822;-66
2024/01/26 02:24:18;;;;;;;;;;;;;;;7.39;100.00;96677.75;10455761;28;2957;-66
2024/01/26 02:29:21;;;;;;;;;;;;;;;7.38;100.00;96673.44;10438687;28;2977;-66
2024/01/26 02:34:24;;;;;;;;;;;;;;;7.34;100.00;96671.47;10443581;28;2986;-69
2024/01/26 02:39:28;;;;;;;;;;;;;;;7.32;100.00;96669.84;10443357;28;3066;-73
2024/01/26 02:44:31;;;;;;;;;;;;;;;7.38;100.00;96672.59;10438481;28;3086;-71
2024/01/26 02:49:33;;;;;;;;;;;;;;;7.37;100.00;96666.44;10440743;28;2934;-66
2024/01/26 02:54:36;;;;;;;;;;;;;;;7.38;100.00;96668.09;10441591;28;2973;-65
2024/01/26 02:59:40;;;;;;;;;;;;;;;7.40;100.00;96666.00;10441370;28;2905;-67
2024/01/26 03:04:43;;;;;;;;;;;;;;;7.37;100.00;96666.44;10447360;28;3031;-65
2024/01/26 03:09:45;;;;;;;;;;;;;;;7.32;100.00;96690.41;10449122;28;2822;-67
2024/01/26 03:14:48;;;;;;;;;;;;;;;7.38;100.00;96684.16;10442635;28;2998;-67
2024/01/26 03:19:50;;;;;;;;;;;;;;;7.45;100.00;96681.34;10445507;28;3220;-68
2024/01/26 03:24:58;;;;;;;;;;;;;;;7.55;100.00;96685.06;10446548;28;2858;-68
2024/01/26 03:30:02;;;;;;;;;;;;;;;7.56;100.00;96686.69;10444946;28;2946;-66
2024/01/26 03:35:05;;;;;;;;;;;;;;;7.59;100.00;96696.94;10447186;28;2966;-65
2024/01/26 03:40:07;;;;;;;;;;;;;;;7.62;100.00;96692.97;10444966;28;2839;-66
2024/01/26 03:45:12;;;;;;;;;;;;;;;7.61;100.00;96693.22;10438342;28;3221;-69
2024/01/26 03:50:16;;;;;;;;;;;;;;;7.59;100.00;96691.59;10443840;28;2935;-65
2024/01/26 03:55:19;;;;;;;;;;;;;;;7.62;100.00;96698.34;10439920;28;3270;-66
2024/01/26 04:00:21;;;;;;;;;;;;;;;7.55;100.00;96701.13;10440294;28;2938;-66
2024/01/26 04:05:23;;;;;;;;;;;;;;;7.55;100.00;96711.81;10426601;28;2993;-66
2024/01/26 04:10:26;;;;;;;;;;;;;;;7.55;100.00;96711.81;10444795;28;2818;-66
2024/01/26 04:15:28;;;;;;;;;;;;;;;7.59;100.00;96718.34;10446708;28;2975;-66
2024/01/26 04:20:31;;;;;;;;;;;;;;;7.65;100.00;96723.84;10444277;28;2834;-66
2024/01/26 04:25:34;;;;;;;;;;;;;;;7.61;100.00;96720.78;10437945;28;2832;-66
2024/01/26 04:30:36;;;;;;;;;;;;;;;7.48;100.00;96734.38;10435692;28;3307;-66
2024/01/26 04:35:39;;;;;;;;;;;;;;;7.43;100.00;96734.25;10436640;28;2960;-66
2024/01/26 04:40:41;;;;;;;;;;;;;;;7.36;100.00;96726.34;10434611;28;3002;-66
2024/01/26 04:45:43;;;;;;;;;;;;;;;7.35;100.00;96737.28;10430774;28;3013;-66
2024/01/26 04:50:46;;;;;;;;;;;;;;;7.34;100.00;96741.81;10444390;28;2888;-66
2024/01/26 04:55:48;;;;;;;;;;;;;;;7.34;100.00;96739.13;10436375;28;3033;-66
2024/01/26 05:00:51;;;;;;;;;;;;;;;7.33;100.00;96734.84;10435818;28;2922;-68
2024/01/26 05:05:53;;;;;;;;;;;;;;;7.32;100.00;96739.38;10433666;28;3013;-66
2024/01/26 05:10:56;;;;;;;;;;;;;;;7.31;100.00;96756.44;10440967;28;2969;-67
2024/01/26 05:15:58;;;;;;;;;;;;;;;7.26;100.00;96750.16;10433216;28;2998;-68
2024/01/26 05:21:01;;;;;;;;;;;;;;;7.22;100.00;96748.97;10437558;28;2778;-66
2024/01/26 05:26:03;;;;;;;;;;;;;;;7.24;100.00;96762.94;10442791;28;2951;-68
2024/01/26 05:31:06;;;;;;;;;;;;;;;7.25;100.00;96770.75;10437483;28;2939;-69
2024/01/26 05:36:08;;;;;;;;;;;;;;;7.28;100.00;96761.44;10443208;28;2878;-67
2024/01/26 05:41:12;;;;;;;;;;;;;;;7.23;100.00;96763.97;10440669;28;2938;-66
2024/01/26 05:46:14;;;;;;;;;;;;;;;7.28;100.00;96766.78;10445058;28;2933;-67
2024/01/26 05:51:17;;;;;;;;;;;;;;;7.24;100.00;96768.28;10445254;28;2903;-66
2024/01/26 05:56:19;;;;;;;;;;;;;;;7.22;100.00;96759.69;10444930;28;3239;-67
2024/01/26 06:01:22;;;;;;;;;;;;;;;7.25;100.00;96756.53;10427485;28;2819;-69
2024/01/26 06:06:25;;;;;;;;;;;;;;;7.26;100.00;96750.97;10446752;28;2948;-67
2024/01/26 06:11:28;;;;;;;;;;;;;;;7.22;100.00;96751.66;10443327;28;2831;-67
2024/01/26 06:16:30;;;;;;;;;;;;;;;7.21;100.00;96748.16;10447371;28;2898;-68
2024/01/26 06:21:33;;;;;;;;;;;;;;;7.21;100.00;96745.50;10447490;28;3013;-68
2024/01/26 06:26:35;;;;;;;;;;;;;;;7.19;100.00;96741.41;10450715;28;3085;-67
2024/01/26 06:31:38;;;;;;;;;;;;;;;7.22;100.00;96748.97;10446134;28;3060;-68
2024/01/26 06:36:41;;;;;;;;;;;;;;;7.18;100.00;96740.59;10446297;28;2869;-67
2024/01/26 06:41:44;;;;;;;;;;;;;;;7.21;100.00;96726.78;10445330;28;2973;-67
2024/01/26 06:46:46;;;;;;;;;;;;;;;7.26;100.00;96729.59;10446985;28;3042;-67
2024/01/26 06:51:49;;;;;;;;;;;;;;;7.26;100.00;96734.13;10450858;28;2994;-65
2024/01/26 06:56:51;;;;;;;;;;;;;;;7.31;100.00;96732.38;10437681;28;3137;-65
2024/01/26 07:01:54;;;;;;;;;;;;;;;7.38;100.00;96726.09;10423431;28;2814;-67
2024/01/26 07:06:56;;;;;;;;;;;;;;;7.40;100.00;96722.16;10444374;28;2942;-64
2024/01/26 07:11:59;;;;;;;;;;;;;;;7.41;100.00;96718.44;10444043;28;2985;-69
2024/01/26 07:17:01;;;;;;;;;;;;;;;7.44;100.00;96704.59;10432474;28;2959;-65
2024/01/26 07:22:06;;;;;;;;;;;;;;;7.47;100.00;96711.38;10441869;28;2947;-68
2024/01/26 07:27:09;;;;;;;;;;;;;;;7.56;100.00;96713.44;10442465;28;2801;-65
2024/01/26 07:32:11;;;;;;;;;;;;;;;7.65;100.00;96705.91;10440186;28;3113;-66
2024/01/26 07:37:13;;;;;;;;;;;;;;;7.71;100.00;96709.53;10436278;28;2937;-65
2024/01/26 07:42:16;;;;;;;;;;;;;;;7.75;100.00;96710.66;10445511;28;2968;-65
2024/01/26 07:47:20;;;;;;;;;;;;;;;7.89;100.00;96714.78;10435004;28;3121;-66
2024/01/26 07:52:23;;;;;;;;;;;;;;;7.99;100.00;96714.97;10417614;28;3016;-64
2024/01/26 07:57:26;;;;;;;;;;;;;;;8.05;100.00;96706.00;10442603;28;2895;-64
2024/01/26 08:02:29;;;;;;;;;;;;;;;8.22;100.00;96694.59;10437609;28;2947;-65
2024/01/26 08:07:32;;;;;;;;;;;;;;;8.32;100.00;96697.47;10440051;28;3187;-66
2024/01/26 08:12:35;;;;;;;;;;;;;;;8.37;100.00;96684.22;10435692;28;2948;-64
2024/01/26 08:17:47;;;;;;;;;;;;;;;8.52;100.00;96672.97;10438054;28;3101;-64
2024/01/26 08:22:50;;;;;;;;;;;;;;;8.60;100.00;96661.91;10439884;28;2981;-64
2024/01/26 08:27:54;;;;;;;;;;;;;;;8.59;100.00;96666.44;10433527;28;2946;-65
2024/01/26 08:32:56;;;;;;;;;;;;;;;8.70;100.00;96661.25;10441416;28;2910;-65
2024/01/26 08:37:59;;;;;;;;;;;;;;;8.65;100.00;96668.16;10437143;28;3036;-65
2024/01/26 08:43:01;;;;;;;;;;;;;;;8.77;100.00;96657.38;10438247;28;3006;-66
2024/01/26 08:48:03;;;;;;;;;;;;;;;8.90;100.00;96653.56;10432975;28;3119;-65
2024/01/26 08:53:06;;;;;;;;;;;;;;;9.01;100.00;96650.03;10439011;28;2915;-68
2024/01/26 08:58:09;;;;;;;;;;;;;;;9.19;100.00;96643.63;10435269;28;2898;-70
2024/01/26 09:03:12;;;;;;;;;;;;;;;9.20;100.00;96638.00;10436122;28;3060;-66
2024/01/26 09:08:15;;;;;;;;;;;;;;;9.43;100.00;96630.88;10439803;28;2942;-66
2024/01/26 09:13:17;;;;;;;;;;;;;;;9.45;100.00;96636.78;10435035;28;2997;-69
2024/01/26 09:18:20;;;;;;;;;;;;;;;9.60;100.00;96622.78;10436555;28;3049;-70
2024/01/26 09:23:22;;;;;;;;;;;;;;;9.62;100.00;96618.81;10438881;28;2946;-75
2024/01/26 09:28:25;;;;;;;;;;;;;;;9.66;100.00;96598.44;10437615;28;3089;-73
2024/01/26 09:33:27;;;;;;;;;;;;;;;10.11;100.00;96610.84;10434090;28;2843;-66
2024/01/26 09:38:30;;;;;;;;;;;;;;;10.25;100.00;96598.72;10444883;28;2999;-64
2024/01/26 09:43:32;;;;;;;;;;;;;;;10.19;100.00;96596.19;10437081;28;2949;-67
2024/01/26 09:48:34;;;;;;;;;;;;;;;10.35;100.00;96592.63;10436898;28;2875;-66
2024/01/26 09:53:37;;;;;;;;;;;;;;;10.48;100.00;96586.03;10434718;28;2888;-67
2024/01/26 09:58:39;;;;;;;;;;;;;;;10.32;100.00;96600.41;10436586;28;3073;-65
2024/01/26 10:03:42;;;;;;;;;;;;;;;10.22;100.00;96593.78;10428491;28;3022;-67
2024/01/26 10:08:44;;;;;;;;;;;;;;;10.59;100.00;96598.53;10437471;28;3091;-66
2024/01/26 10:13:47;;;;;;;;;;;;;;;10.70;100.00;96592.19;10440326;28;2979;-66
2024/01/26 10:18:49;;;;;;;;;;;;;;;10.74;100.00;96574.47;10419500;28;3041;-66
2024/01/26 10:23:52;;;;;;;;;;;;;;;10.77;100.00;96559.72;10450049;28;3017;-65
2024/01/26 10:28:56;;;;;;;;;;;;;;;10.90;100.00;96548.53;10442764;28;2853;-68
2024/01/26 10:33:59;;;;;;;;;;;;;;;11.06;100.00;96531.44;10443641;28;2987;-68
2024/01/26 10:39:01;;;;;;;;;;;;;;;11.35;100.00;96529.22;10446424;28;2994;-66
2024/01/26 10:44:04;;;;;;;;;;;;;;;11.28;100.00;96495.53;10440166;28;3084;-67
2024/01/26 10:49:07;;;;;;;;;;;;;;;11.11;100.00;96490.31;10441283;28;2905;-66
2024/01/26 10:54:09;;;;;;;;;;;;;;;11.11;100.00;96471.47;10444448;28;2957;-66
2024/01/26 10:59:12;;;;;;;;;;;;;;;11.28;100.00;96455.97;10440545;28;2887;-65
2024/01/26 11:04:15;;;;;;;;;;;;;;;11.44;100.00;96446.06;10444110;28;3033;-66
2024/01/26 11:09:19;;;;;;;;;;;;;;;11.40;100.00;96436.91;10442128;28;2833;-70
2024/01/26 11:14:21;;;;;;;;;;;;;;;11.47;100.00;96434.00;10420924;28;2902;-65
2024/01/26 11:19:24;;;;;;;;;;;;;;;11.66;100.00;96427.06;10440158;28;3002;-64
2024/01/26 11:24:26;;;;;;;;;;;;;;;11.72;100.00;96417.94;10438811;28;2971;-64
2024/01/26 11:29:29;;;;;;;;;;;;;;;11.74;100.00;96409.56;10437406;28;3023;-64
2024/01/26 11:34:31;;;;;;;;;;;;;;;11.58;100.00;96412.22;10440791;28;3305;-65
2024/01/26 11:39:33;;;;;;;;;;;;;;;11.41;100.00;96397.34;10441915;28;2931;-64
2024/01/26 11:44:36;;;;;;;;;;;;;;;11.30;100.00;96394.59;10441446;28;2980;-64
2024/01/26 11:49:39;;;;;;;;;;;;;;;11.41;100.00;96397.34;10446318;28;2786;-63
2024/01/26 11:54:43;;;;;;;;;;;;;;;11.67;100.00;96401.75;10443210;28;2873;-70
2024/01/26 11:59:46;;;;;;;;;;;;;;;11.73;100.00;96389.91;10449757;28;3036;-69
2024/01/26 12:04:49;;;;;;;;;;;;;;;11.92;100.00;96378.69;10443275;28;3027;-65
2024/01/26 12:09:52;;;;;;;;;;;;;;;11.93;100.00;96377.59;10447139;28;2954;-65
2024/01/26 12:14:54;;;;;;;;;;;;;;;11.82;100.00;96396.41;10436916;28;2939;-65
2024/01/26 12:19:56;;;;;;;;;;;;;;;11.67;100.00;96395.56;10447637;28;2933;-65
2024/01/26 12:25:02;;;;;;;;;;;;;;;11.51;100.00;96387.41;10437896;28;3033;-65
2024/01/26 12:30:04;;;;;;;;;;;;;;;11.29;100.00;96386.81;10433708;28;2954;-65
2024/01/26 12:35:07;;;;;;;;;;;;;;;10.87;100.00;96398.41;10440211;28;3136;-66
2024/01/26 12:40:10;;;;;;;;;;;;;;;10.61;100.00;96377.81;10441962;28;2977;-63
2024/01/26 12:45:12;;;;;;;;;;;;;;;10.52;100.00;96374.81;10434113;28;2930;-65
2024/01/26 12:50:15;;;;;;;;;;;;;;;10.38;100.00;96368.25;10432651;28;2958;-64
2024/01/26 12:55:17;;;;;;;;;;;;;;;10.33;100.00;96360.16;10436035;28;2934;-63
2024/01/26 13:00:20;;;;;;;;;;;;;;;10.14;100.00;96367.75;10433299;28;2898;-65
2024/01/26 13:05:22;;;;;;;;;;;;;;;9.86;100.00;96371.53;10419736;28;3076;-65
2024/01/26 13:10:25;;;;;;;;;;;;;;;9.66;100.00;96364.91;10433909;28;3011;-65
2024/01/26 13:15:27;;;;;;;;;;;;;;;9.52;100.00;96378.97;10416501;28;3046;-64
2024/01/26 13:20:30;;;;;;;;;;;;;;;9.38;100.00;96370.50;10436556;28;3367;-67
2024/01/26 13:25:33;;;;;;;;;;;;;;;9.24;100.00;96385.38;10441124;28;2919;-65
2024/01/26 13:30:35;;;;;;;;;;;;;;;9.09;100.00;96397.50;10430405;28;2943;-65
2024/01/26 13:35:38;;;;;;;;;;;;;;;8.97;100.00;96406.72;10441365;28;3025;-65
2024/01/26 13:40:40;;;;;;;;;;;;;;;8.83;100.00;96403.59;10439596;28;3199;-65
2024/01/26 13:45:43;;;;;;;;;;;;;;;8.70;100.00;96417.34;10435198;28;2994;-65
2024/01/26 13:50:48;;;;;;;;;;;;;;;8.69;100.00;96413.84;10433163;28;2914;-65
2024/01/26 13:55:51;;;;;;;;;;;;;;;8.61;100.00;96423.13;10434660;28;2973;-66
2024/01/26 14:00:54;;;;;;;;;;;;;;;8.56;100.00;96423.03;10429399;28;3160;-64
2024/01/26 14:05:57;;;;;;;;;;;;;;;8.49;100.00;96416.22;10451417;28;3008;-65
2024/01/26 14:11:00;;;;;;;;;;;;;;;8.41;100.00;96419.31;10445430;28;2962;-65
2024/01/26 14:16:02;;;;;;;;;;;;;;;8.39;100.00;96424.91;10441222;28;2982;-65
2024/01/26 14:21:05;;;;;;;;;;;;;;;8.34;100.00;96433.66;10446465;28;2946;-67
2024/01/26 14:26:10;;;;;;;;;;;;;;;8.29;100.00;96433.56;10444656;28;3032;-67
2024/01/26 14:31:12;;;;;;;;;;;;;;;8.28;100.00;96433.81;10444044;28;3099;-66
2024/01/26 14:36:15;;;;;;;;;;;;;;;8.30;100.00;96434.38;10444336;28;3007;-66
2024/01/26 14:41:18;;;;;;;;;;;;;;;8.22;100.00;96437.47;10443872;28;2990;-66
2024/01/26 14:46:20;;;;;;;;;;;;;;;8.23;100.00;96445.25;10434858;28;2977;-65
2024/01/26 14:51:22;;;;;;;;;;;;;;;8.20;100.00;96444.91;10440491;28;2942;-65
2024/01/26 14:56:25;;;;;;;;;;;;;;;8.21;100.00;96431.31;10436212;28;3029;-66
2024/01/26 15:01:27;;;;;;;;;;;;;;;8.19;100.00;96437.94;10441959;28;3073;-64
2024/01/26 15:06:30;;;;;;;;;;;;;;;8.24;100.00;96430.81;10420657;28;2969;-67
2024/01/26 15:11:32;;;;;;;;;;;;;;;8.22;100.00;96454.34;10436282;28;3076;-64
2024/01/26 15:16:36;;;;;;;;;;;;;;;8.28;100.00;96458.75;10442964;28;2971;-65
2024/01/26 15:21:40;;;;;;;;;;;;;;;8.29;100.00;96443.47;10440715;28;2866;-64
2024/01/26 15:26:43;;;;;;;;;;;;;;;8.19;100.00;96448.66;10432673;28;3001;-65
2024/01/26 15:31:46;;;;;;;;;;;;;;;8.18;100.00;96457.75;10440530;28;2938;-66
2024/01/26 15:36:49;;;;;;;;;;;;;;;8.07;100.00;96452.19;10435103;28;3021;-66
2024/01/26 15:41:51;;;;;;;;;;;;;;;8.03;100.00;96453.75;10433442;28;2918;-72
2024/01/26 15:46:54;;;;;;;;;;;;;;;8.00;100.00;96472.16;10440082;28;2805;-71
2024/01/26 15:51:56;;;;;;;;;;;;;;;7.97;100.00;96472.63;10445654;28;2990;-70
2024/01/26 15:57:01;;;;;;;;;;;;;;;7.94;100.00;96471.25;10437242;28;2993;-69
2024/01/26 16:02:04;;;;;;;;;;;;;;;7.97;100.00;96483.34;10439475;28;2924;-69
2024/01/26 16:07:07;;;;;;;;;;;;;;;7.95;100.00;96480.91;10441120;28;2915;-70
2024/01/26 16:12:10;;;;;;;;;;;;;;;7.95;100.00;96485.44;10437334;28;2865;-71
2024/01/26 16:17:16;;;;;;;;;;;;;;;7.97;100.00;96489.50;10439534;28;2883;-69
2024/01/26 16:22:19;;;;;;;;;;;;;;;7.97;100.00;96494.06;10442049;28;2941;-70
2024/01/26 16:27:21;;;;;;;;;;;;;;;7.98;100.00;96495.69;10443678;28;2845;-73
2024/01/26 16:32:24;;;;;;;;;;;;;;;7.99;100.00;96505.31;10436313;28;2885;-69
2024/01/26 16:37:26;;;;;;;;;;;;;;;7.97;100.00;96505.56;10449659;28;3184;-70
2024/01/26 16:42:32;;;;;;;;;;;;;;;7.99;100.00;96505.31;10448885;28;3199;-69
2024/01/26 16:47:35;;;;;;;;;;;;;;;7.97;100.00;96483.34;10447400;28;2909;-69
2024/01/26 16:52:38;;;;;;;;;;;;;;;7.99;100.00;96506.13;10449312;28;2869;-67
2024/01/26 16:57:40;;;;;;;;;;;;;;;7.99;100.00;96505.31;10445419;28;2933;-68
2024/01/26 17:02:43;;;;;;;;;;;;;;;8.03;100.00;96518.00;10446248;28;2872;-69
2024/01/26 17:07:46;;;;;;;;;;;;;;;8.12;100.00;96526.47;10452011;28;2790;-69
2024/01/26 17:12:48;;;;;;;;;;;;;;;8.17;100.00;96515.84;10441457;28;2942;-70
2024/01/26 17:17:53;;;;;;;;;;;;;;;8.26;100.00;96529.66;10441538;28;3013;-71
2024/01/26 17:22:57;;;;;;;;;;;;;;;8.35;100.00;96550.50;10432664;28;2912;-70
2024/01/26 17:27:59;;;;;;;;;;;;;;;8.38;100.00;96559.91;10450041;28;2938;-70
2024/01/26 17:33:02;;;;;;;;;;;;;;;8.43;100.00;96589.47;10441128;28;2818;-69
2024/01/26 17:38:05;;;;;;;;;;;;;;;8.37;100.00;96585.91;10440277;28;3108;-71
2024/01/26 17:43:07;;;;;;;;;;;;;;;8.36;100.00;96583.47;10439894;28;2861;-71
2024/01/26 17:48:10;;;;;;;;;;;;;;;8.35;100.00;96603.25;10436137;28;2770;-73
2024/01/26 17:53:13;;;;;;;;;;;;;;;8.30;100.00;96593.22;10439339;28;2810;-74
2024/01/26 17:58:17;;;;;;;;;;;;;;;8.25;100.00;96611.06;10444610;28;2872;-75
2024/01/26 18:03:20;;;;;;;;;;;;;;;8.28;100.00;96619.44;10444146;28;3095;-68
2024/01/26 18:08:22;;;;;;;;;;;;;;;8.23;100.00;96634.59;10437113;28;2872;-76
2024/01/26 18:13:24;;;;;;;;;;;;;;;8.21;100.00;96650.91;10433757;28;2945;-69
2024/01/26 18:18:28;;;;;;;;;;;;;;;8.21;100.00;96682.25;10439255;28;2845;-69
2024/01/26 18:23:31;;;;;;;;;;;;;;;8.21;100.00;96707.16;10445693;28;2909;-70
2024/01/26 18:28:33;;;;;;;;;;;;;;;8.19;100.00;96721.81;10441958;28;2844;-69
2024/01/26 18:33:35;;;;;;;;;;;;;;;8.12;100.00;96740.69;10443716;28;2810;-69
2024/01/26 18:38:39;;;;;;;;;;;;;;;8.04;100.00;96751.78;10433466;28;2941;-70
2024/01/26 18:43:41;;;;;;;;;;;;;;;7.99;100.00;96771.19;10441900;28;2919;-69
2024/01/26 18:48:45;;;;;;;;;;;;;;;7.93;100.00;96777.47;10444992;28;2861;-70
2024/01/26 18:53:48;;;;;;;;;;;;;;;7.80;100.00;96801.81;10445587;28;2867;-69
2024/01/26 18:58:50;;;;;;;;;;;;;;;7.65;100.00;96807.59;10448660;28;2804;-69
2024/01/26 19:03:53;;;;;;;;;;;;;;;7.65;100.00;96812.13;10442643;28;2921;-68
2024/01/26 19:08:57;;;;;;;;;;;;;;;7.43;100.00;96835.91;10449137;28;2876;-69
2024/01/26 19:13:59;;;;;;;;;;;;;;;7.29;100.00;96889.59;10443625;28;2861;-70
2024/01/26 19:19:02;;;;;;;;;;;;;;;6.14;100.00;96876.00;10447441;28;2920;-72
2024/01/26 19:24:04;;;;;;;;;;;;;;;5.61;100.00;96892.38;10438285;28;2849;-70
2024/01/26 19:29:08;;;;;;;;;;;;;;;5.50;100.00;96894.91;10449021;28;2885;-72
2024/01/26 19:34:10;;;;;;;;;;;;;;;5.60;100.00;96900.63;10443022;28;2852;-70
2024/01/26 19:39:13;;;;;;;;;;;;;;;5.65;100.00;96919.44;10438875;28;2914;-71
2024/01/26 19:44:15;;;;;;;;;;;;;;;5.73;100.00;96931.72;10443015;28;3010;-71
2024/01/26 19:49:17;;;;;;;;;;;;;;;5.68;100.00;96949.19;10446050;28;3040;-70
2024/01/26 19:54:20;;;;;;;;;;;;;;;5.65;100.00;96959.44;10440715;28;2977;-71
2024/01/26 19:59:23;;;;;;;;;;;;;;;5.47;100.00;96964.66;10426538;28;2961;-70
2024/01/26 20:04:25;;;;;;;;;;;;;;;5.20;100.00;96979.94;10444977;28;2898;-69
2024/01/26 20:09:28;;;;;;;;;;;;;;;5.04;100.00;97002.56;10443775;28;3056;-70
2024/01/26 20:14:31;;;;;;;;;;;;;;;4.93;100.00;97016.50;10439370;28;2955;-70
2024/01/26 20:19:35;;;;;;;;;;;;;;;4.81;100.00;97029.63;10441622;28;2951;-70
2024/01/26 20:24:39;;;;;;;;;;;;;;;4.74;100.00;97032.31;10451438;28;2976;-71
2024/01/26 20:29:42;;;;;;;;;;;;;;;4.74;100.00;97047.47;10440454;28;3005;-69
2024/01/26 20:34:50;;;;;;;;;;;;;;;4.73;100.00;97062.63;10441685;28;2925;-69
2024/01/26 20:39:53;;;;;;;;;;;;;;;4.63;100.00;97064.06;10441023;28;3032;-69
2024/01/26 20:44:56;;;;;;;;;;;;;;;4.41;100.00;97077.56;10440510;28;3096;-68
2024/01/26 20:49:59;;;;;;;;;;;;;;;4.19;100.00;97081.41;10452242;28;2925;-71
2024/01/26 20:55:02;;;;;;;;;;;;;;;4.06;100.00;97092.81;10445395;28;2884;-70
2024/01/26 21:00:05;;;;;;;;;;;;;;;3.86;100.00;97099.91;10447102;28;2809;-69
2024/01/26 21:05:07;;;;;;;;;;;;;;;3.71;100.00;97110.72;10442850;28;2966;-70
2024/01/26 21:10:10;;;;;;;;;;;;;;;3.70;100.00;97120.53;10446339;28;3010;-71
2024/01/26 21:15:13;;;;;;;;;;;;;;;3.69;100.00;97116.25;10432401;28;2830;-70
2024/01/26 21:20:17;;;;;;;;;;;;;;;3.74;100.00;97118.28;10450474;28;2892;-69
2024/01/26 21:25:19;;;;;;;;;;;;;;;3.57;100.00;97112.50;10444504;28;2862;-69
2024/01/26 21:30:22;;;;;;;;;;;;;;;3.39;100.00;97123.63;10442874;28;3344;-70
2024/01/26 21:35:25;;;;;;;;;;;;;;;3.34;100.00;97117.25;10445187;28;2848;-71
2024/01/26 21:40:29;;;;;;;;;;;;;;;3.45;100.00;97119.38;10440979;28;2856;-69
2024/01/26 21:45:33;;;;;;;;;;;;;;;3.42;100.00;97125.88;10439042;28;3000;-70
2024/01/26 21:50:37;;;;;;;;;;;;;;;3.47;100.00;97133.28;10443631;28;2779;-70
2024/01/26 21:55:41;;;;;;;;;;;;;;;3.41;100.00;97126.09;10435791;28;3001;-70
2024/01/26 22:00:45;;;;;;;;;;;;;;;3.42;100.00;97127.72;10443553;28;2970;-71
2024/01/26 22:05:48;;;;;;;;;;;;;;;3.45;100.00;97135.31;10441025;28;2865;-72
2024/01/26 22:10:54;;;;;;;;;;;;;;;3.48;100.00;97129.59;10447818;28;2920;-69
2024/01/26 22:15:57;;;;;;;;;;;;;;;3.41;100.00;97123.44;10444924;28;2920;-71
2024/01/26 22:21:00;;;;;;;;;;;;;;;3.37;100.00;97127.47;10445728;28;3064;-67
2024/01/26 22:26:03;;;;;;;;;;;;;;;3.14;100.00;97123.25;10454120;28;2987;-69
2024/01/26 22:31:05;;;;;;;;;;;;;;;3.09;100.00;97138.94;10444708;28;2955;-68
2024/01/26 22:36:08;;;;;;;;;;;;;;;2.88;100.00;97154.94;10449072;28;2938;-69
2024/01/26 22:41:11;;;;;;;;;;;;;;;2.76;100.00;97164.41;10426130;28;2982;-68
2024/01/26 22:46:13;;;;;;;;;;;;;;;2.62;100.00;97169.59;10440530;28;2841;-69
2024/01/26 22:51:17;;;;;;;;;;;;;;;2.43;100.00;97178.19;10452375;28;2834;-69
2024/01/26 22:56:20;;;;;;;;;;;;;;;2.44;100.00;97174.50;10446690;28;2837;-68
2024/01/26 23:01:22;;;;;;;;;;;;;;;2.39;100.00;97172.41;10449900;28;2870;-69
2024/01/26 23:06:25;;;;;;;;;;;;;;;2.32;100.00;97176.00;10446189;28;2841;-69
2024/01/26 23:11:29;;;;;;;;;;;;;;;2.09;100.00;97192.88;10445355;28;2817;-69
2024/01/26 23:16:32;;;;;;;;;;;;;;;2.06;100.00;97198.56;10444971;28;2839;-69
2024/01/26 23:21:34;;;;;;;;;;;;;;;1.93;100.00;97201.06;10439082;28;3044;-69
2024/01/26 23:26:37;;;;;;;;;;;;;;;1.86;100.00;97198.31;10443627;28;2866;-69
2024/01/26 23:31:40;;;;;;;;;;;;;;;1.80;100.00;97212.31;10444676;28;2865;-69
2024/01/26 23:36:42;;;;;;;;;;;;;;;1.75;100.00;97208.56;10446006;28;2930;-70
2024/01/26 23:41:46;;;;;;;;;;;;;;;1.71;100.00;97215.22;10428890;28;2888;-69
2024/01/26 23:46:49;;;;;;;;;;;;;;;1.73;100.00;97208.75;10441408;28;2786;-69
2024/01/26 23:51:52;;;;;;;;;;;;;;;1.78;100.00;97211.69;10443209;28;2975;-69
2024/01/26 23:56:54;;;;;;;;;;;;;;;1.80;100.00;97217.59;10438994;28;3013;-66
